Rocky Grove, Pennsylvania
Current Conditions -  °F | °C
As of 3:35 AM on Friday 28 Nov 2014 (Local Time) from KFKL Reporting Station
Broken Clouds Broken Clouds  
Wind Chill: 16°   Ceiling: 5000
Heat Index: 23°   Visibility: 10mi
Dew Point: 18°   Wind: 6mph
Humidity: 80%   Direction: 300°WNW
Pressure: 30.2"   Gusts: NA
Location:  41.4663°N, 79.8305°W
Report Text: KFKL 280835Z AUTO 30005KT 10SM SCT013 BKN050 M05/M08 A3020 RMK AO1
Loading
Personal Weather Stations






























Interactive Weather Map New forecast layout! Learn more

10-Day Weather Forecast

Advertisements
Track Severe Weather on mobile